Time;durP1;ratioP1;P1;durP2;ratioP2;P2;SDS_P1;SDS_P2;PMS_P1;PMS_P2;Temp;Humidity;BMP_temperature;BMP_pressure;BME280_temperature;BME280_humidity;BME280_pressure;Samples;Min_cycle;Max_cycle;Signal;HPM_P1;HPM_P2
2023/04/15 00:01:47;;;;;;;5.47;3.17;;;;;;;;;;5056747;28;20291;-55
2023/04/15 00:04:15;;;;;;;4.60;3.15;;;;;;;;;;5056349;28;20695;-50
2023/04/15 00:06:42;;;;;;;5.47;3.65;;;;;;;;;;5056468;28;20199;-49
2023/04/15 00:09:10;;;;;;;4.07;3.13;;;;;;;;;;5038947;28;20232;-50
2023/04/15 00:11:37;;;;;;;3.92;2.47;;;;;;;;;;5056325;28;20207;-50
2023/04/15 00:14:05;;;;;;;4.68;3.10;;;;;;;;;;5056582;28;20208;-49
2023/04/15 00:16:32;;;;;;;3.75;2.67;;;;;;;;;;5055950;28;20204;-50
2023/04/15 00:18:59;;;;;;;4.07;3.08;;;;;;;;;;5056700;28;20208;-50
2023/04/15 00:21:27;;;;;;;4.55;2.85;;;;;;;;;;5056156;28;20204;-50
2023/04/15 00:23:55;;;;;;;5.75;3.47;;;;;;;;;;5056579;28;20613;-54
2023/04/15 00:26:22;;;;;;;4.20;3.13;;;;;;;;;;5056134;28;20232;-49
2023/04/15 00:28:50;;;;;;;3.50;2.85;;;;;;;;;;5038519;28;20312;-51
2023/04/15 00:31:18;;;;;;;3.60;3.03;;;;;;;;;;5056706;28;20200;-50
2023/04/15 00:33:45;;;;;;;4.47;3.03;;;;;;;;;;5056152;28;20208;-50
2023/04/15 00:36:13;;;;;;;4.70;2.88;;;;;;;;;;5038115;28;20659;-50
2023/04/15 00:38:40;;;;;;;4.18;3.30;;;;;;;;;;5055602;28;20563;-50
2023/04/15 00:41:09;;;;;;;5.53;3.33;;;;;;;;;;5037966;28;20204;-49
2023/04/15 00:43:37;;;;;;;4.70;3.40;;;;;;;;;;5055692;28;20660;-50
2023/04/15 00:46:04;;;;;;;3.97;3.05;;;;;;;;;;5038212;28;20211;-54
2023/04/15 00:48:32;;;;;;;3.90;3.03;;;;;;;;;;5037923;28;20200;-50
2023/04/15 00:50:59;;;;;;;3.92;2.75;;;;;;;;;;5055850;28;20570;-50
2023/04/15 00:53:27;;;;;;;5.78;3.80;;;;;;;;;;5037933;28;20318;-49
2023/04/15 00:55:54;;;;;;;6.00;3.78;;;;;;;;;;5037660;28;20324;-54
2023/04/15 00:58:22;;;;;;;5.13;3.00;;;;;;;;;;5055729;28;20204;-51
2023/04/15 01:00:53;;;;;;;5.07;3.22;;;;;;;;;;5055670;28;20212;-52
2023/04/15 01:03:20;;;;;;;4.40;3.03;;;;;;;;;;5055904;28;20192;-52
2023/04/15 01:05:48;;;;;;;4.43;2.75;;;;;;;;;;5055408;28;20211;-50
2023/04/15 01:08:15;;;;;;;4.88;3.20;;;;;;;;;;5038071;28;20204;-50
2023/04/15 01:10:42;;;;;;;5.32;3.38;;;;;;;;;;5037323;28;20224;-50
2023/04/15 01:13:10;;;;;;;5.30;3.25;;;;;;;;;;5055590;28;20307;-50
2023/04/15 01:15:38;;;;;;;4.22;2.75;;;;;;;;;;5055433;28;20215;-50
2023/04/15 01:18:06;;;;;;;5.47;3.30;;;;;;;;;;5037225;28;20240;-51
2023/04/15 01:20:33;;;;;;;5.40;3.72;;;;;;;;;;5055182;28;20200;-50
2023/04/15 01:23:00;;;;;;;4.85;3.20;;;;;;;;;;5037138;28;20687;-53
2023/04/15 01:25:32;;;;;;;4.32;3.25;;;;;;;;;;5055056;28;20540;-53
2023/04/15 01:27:59;;;;;;;5.18;3.90;;;;;;;;;;5055277;28;20211;-51
2023/04/15 01:30:26;;;;;;;5.63;3.40;;;;;;;;;;5037281;28;20230;-50
2023/04/15 01:32:54;;;;;;;4.20;3.28;;;;;;;;;;5054753;28;20661;-50
2023/04/15 01:35:21;;;;;;;5.97;3.40;;;;;;;;;;5036994;28;20536;-50
2023/04/15 01:37:51;;;;;;;4.75;3.00;;;;;;;;;;5054757;28;20204;-50
2023/04/15 01:40:18;;;;;;;4.38;2.92;;;;;;;;;;5054938;28;20599;-50
2023/04/15 01:42:46;;;;;;;5.90;3.10;;;;;;;;;;5037168;28;20200;-50
2023/04/15 01:45:14;;;;;;;4.85;3.10;;;;;;;;;;5054715;28;20203;-54
2023/04/15 01:47:41;;;;;;;4.88;3.45;;;;;;;;;;5036698;28;20676;-50
2023/04/15 01:50:09;;;;;;;4.55;3.25;;;;;;;;;;5036364;28;20586;-49
2023/04/15 01:52:37;;;;;;;5.55;3.35;;;;;;;;;;5036577;28;20227;-50
2023/04/15 01:55:05;;;;;;;4.95;3.60;;;;;;;;;;5054466;28;20236;-50
2023/04/15 01:57:32;;;;;;;6.70;3.33;;;;;;;;;;5036775;28;20208;-53
2023/04/15 01:59:59;;;;;;;4.38;3.25;;;;;;;;;;5036550;28;20212;-50
2023/04/15 02:02:28;;;;;;;5.70;3.85;;;;;;;;;;5054288;28;20691;-50
2023/04/15 02:04:55;;;;;;;4.88;2.72;;;;;;;;;;5054337;28;20200;-49
2023/04/15 02:07:23;;;;;;;6.45;3.53;;;;;;;;;;5054201;28;20536;-50
2023/04/15 02:09:50;;;;;;;6.45;3.35;;;;;;;;;;5036466;28;20230;-49
2023/04/15 02:12:17;;;;;;;5.70;3.97;;;;;;;;;;5054308;28;20208;-50
2023/04/15 02:14:44;;;;;;;7.05;4.00;;;;;;;;;;5036432;28;20258;-50
2023/04/15 02:17:11;;;;;;;5.53;3.63;;;;;;;;;;5036277;28;20286;-51
2023/04/15 02:19:39;;;;;;;6.07;3.42;;;;;;;;;;5053912;28;20725;-54
2023/04/15 02:22:08;;;;;;;6.28;3.72;;;;;;;;;;5036669;28;20204;-52
2023/04/15 02:24:35;;;;;;;4.22;3.17;;;;;;;;;;5036336;28;20211;-51
2023/04/15 02:27:02;;;;;;;4.43;3.17;;;;;;;;;;5054064;28;20199;-52
2023/04/15 02:29:31;;;;;;;5.00;3.15;;;;;;;;;;5036366;28;20299;-50
2023/04/15 02:32:00;;;;;;;6.20;3.75;;;;;;;;;;5036157;28;20691;-50
2023/04/15 02:34:27;;;;;;;5.38;3.10;;;;;;;;;;5035988;28;20660;-51
2023/04/15 02:36:56;;;;;;;4.53;2.95;;;;;;;;;;5036164;28;20208;-50
2023/04/15 02:39:24;;;;;;;5.55;3.28;;;;;;;;;;5036197;28;20583;-50
2023/04/15 02:41:51;;;;;;;5.32;3.35;;;;;;;;;;5035874;28;20204;-49
2023/04/15 02:44:19;;;;;;;7.70;3.10;;;;;;;;;;5036032;28;20200;-50
2023/04/15 02:46:51;;;;;;;5.45;3.50;;;;;;;;;;5036341;28;20188;-52
2023/04/15 02:49:20;;;;;;;5.63;3.38;;;;;;;;;;5036132;28;20250;-51
2023/04/15 02:51:48;;;;;;;6.10;3.95;;;;;;;;;;5035699;28;20676;-50
2023/04/15 02:54:19;;;;;;;5.80;3.03;;;;;;;;;;5035892;28;20212;-50
2023/04/15 02:56:47;;;;;;;4.15;2.92;;;;;;;;;;5046046;28;20207;-50
2023/04/15 02:59:14;;;;;;;4.65;3.03;;;;;;;;;;5045791;28;20212;-51
2023/04/15 03:01:41;;;;;;;5.68;3.50;;;;;;;;;;5053431;28;20204;-50
2023/04/15 03:04:08;;;;;;;4.45;3.35;;;;;;;;;;5035801;28;20203;-51
2023/04/15 03:06:36;;;;;;;7.80;3.55;;;;;;;;;;5035689;28;20226;-50
2023/04/15 03:09:03;;;;;;;6.43;3.70;;;;;;;;;;5053497;28;20200;-50
2023/04/15 03:11:35;;;;;;;4.05;2.78;;;;;;;;;;5035453;28;20660;-50
2023/04/15 03:14:03;;;;;;;3.50;2.70;;;;;;;;;;5035742;28;20207;-51
2023/04/15 03:16:34;;;;;;;5.15;3.40;;;;;;;;;;5035369;28;20208;-50
2023/04/15 03:19:01;;;;;;;4.95;3.53;;;;;;;;;;5035776;28;20208;-50
2023/04/15 03:21:32;;;;;;;3.67;3.25;;;;;;;;;;5035287;28;20192;-50
2023/04/15 03:23:59;;;;;;;6.00;4.10;;;;;;;;;;5035051;28;20219;-50
2023/04/15 03:26:28;;;;;;;5.45;3.13;;;;;;;;;;5035349;28;20212;-50
2023/04/15 03:28:59;;;;;;;4.13;2.85;;;;;;;;;;5035579;28;20207;-50
2023/04/15 03:31:27;;;;;;;4.88;3.03;;;;;;;;;;5035067;28;20251;-50
2023/04/15 03:33:54;;;;;;;4.65;3.55;;;;;;;;;;5035128;28;20258;-50
2023/04/15 03:36:22;;;;;;;5.50;4.13;;;;;;;;;;5052667;28;20211;-51
2023/04/15 03:38:49;;;;;;;6.50;4.03;;;;;;;;;;5035382;28;20222;-50
2023/04/15 03:41:17;;;;;;;4.45;2.92;;;;;;;;;;5052937;28;20219;-49
2023/04/15 03:43:43;;;;;;;4.18;3.22;;;;;;;;;;5052637;28;20691;-50
2023/04/15 03:46:11;;;;;;;5.30;3.67;;;;;;;;;;5052587;28;20241;-49
2023/04/15 03:48:38;;;;;;;4.22;3.30;;;;;;;;;;5052820;28;20660;-50
2023/04/15 03:51:05;;;;;;;5.72;3.80;;;;;;;;;;5052488;28;20358;-52
2023/04/15 03:53:32;;;;;;;5.28;3.67;;;;;;;;;;5052993;28;20207;-50
2023/04/15 03:55:59;;;;;;;6.78;3.85;;;;;;;;;;5052482;28;20669;-51
2023/04/15 03:58:26;;;;;;;3.70;2.85;;;;;;;;;;5034222;28;20661;-51
2023/04/15 04:00:53;;;;;;;4.90;3.50;;;;;;;;;;5052578;28;20211;-50
2023/04/15 04:03:20;;;;;;;6.50;3.90;;;;;;;;;;5052545;28;20204;-51
2023/04/15 04:05:48;;;;;;;4.55;3.30;;;;;;;;;;5052925;28;20199;-51
2023/04/15 04:08:15;;;;;;;6.90;4.03;;;;;;;;;;5052705;28;20211;-49
2023/04/15 04:10:42;;;;;;;5.07;3.83;;;;;;;;;;5052367;28;20231;-52
2023/04/15 04:13:10;;;;;;;5.00;3.53;;;;;;;;;;5052849;28;20200;-51
2023/04/15 04:15:37;;;;;;;4.47;2.97;;;;;;;;;;5055480;28;20254;-49
2023/04/15 04:18:04;;;;;;;5.40;3.83;;;;;;;;;;5056270;28;20322;-53
2023/04/15 04:20:31;;;;;;;5.43;3.38;;;;;;;;;;5056171;28;20262;-48
2023/04/15 04:22:58;;;;;;;4.47;3.10;;;;;;;;;;5056022;28;20204;-50
2023/04/15 04:25:26;;;;;;;7.03;4.05;;;;;;;;;;5056206;28;20207;-56
2023/04/15 04:27:53;;;;;;;4.18;2.90;;;;;;;;;;5056070;28;20536;-52
2023/04/15 04:30:20;;;;;;;5.40;3.97;;;;;;;;;;5055829;28;20232;-51
2023/04/15 04:32:48;;;;;;;5.28;3.38;;;;;;;;;;5056094;28;20200;-55
2023/04/15 04:35:16;;;;;;;6.00;3.70;;;;;;;;;;5055823;28;20212;-50
2023/04/15 04:37:43;;;;;;;3.80;2.58;;;;;;;;;;5056121;28;20257;-51
2023/04/15 04:40:11;;;;;;;4.95;3.22;;;;;;;;;;5055855;28;20212;-48
2023/04/15 04:42:38;;;;;;;5.22;3.30;;;;;;;;;;5055703;28;20204;-50
2023/04/15 04:45:07;;;;;;;3.75;2.80;;;;;;;;;;5055694;28;20212;-52
2023/04/15 04:47:34;;;;;;;4.78;3.10;;;;;;;;;;5055855;28;20211;-55
2023/04/15 04:50:02;;;;;;;4.53;3.03;;;;;;;;;;5055471;28;20228;-52
2023/04/15 04:52:29;;;;;;;5.55;2.65;;;;;;;;;;5056014;28;20211;-51
2023/04/15 04:54:56;;;;;;;3.88;2.85;;;;;;;;;;5055382;28;20207;-50
2023/04/15 04:57:23;;;;;;;3.92;2.75;;;;;;;;;;5055444;28;20671;-52
2023/04/15 04:59:50;;;;;;;3.78;3.10;;;;;;;;;;5037839;28;20546;-54
2023/04/15 05:02:18;;;;;;;4.68;3.20;;;;;;;;;;5079867;28;20240;-52
2023/04/15 05:04:45;;;;;;;4.10;3.10;;;;;;;;;;5084072;28;20199;-53
2023/04/15 05:07:12;;;;;;;2.97;2.30;;;;;;;;;;5083322;28;20203;-51
2023/04/15 05:09:39;;;;;;;3.90;3.22;;;;;;;;;;5080487;28;20203;-54
2023/04/15 05:12:08;;;;;;;3.83;2.63;;;;;;;;;;5080991;28;20199;-51
2023/04/15 05:14:35;;;;;;;3.65;2.70;;;;;;;;;;5084806;28;20667;-49
2023/04/15 05:17:02;;;;;;;5.53;3.22;;;;;;;;;;5083170;28;20727;-54
2023/04/15 05:19:29;;;;;;;2.28;2.00;;;;;;;;;;5083652;28;20199;-53
2023/04/15 05:21:56;;;;;;;4.38;2.70;;;;;;;;;;5084698;28;20205;-50
2023/04/15 05:24:24;;;;;;;3.80;2.22;;;;;;;;;;5084029;28;20562;-51
2023/04/15 05:26:51;;;;;;;4.18;2.47;;;;;;;;;;5064958;28;20191;-52
2023/04/15 05:29:18;;;;;;;4.05;2.60;;;;;;;;;;5084360;28;20257;-53
2023/04/15 05:31:45;;;;;;;4.22;2.97;;;;;;;;;;5083408;28;20262;-51
2023/04/15 05:34:14;;;;;;;4.15;2.53;;;;;;;;;;5082162;28;20253;-52
2023/04/15 05:36:41;;;;;;;3.75;2.63;;;;;;;;;;5072768;28;20970;-55
2023/04/15 05:39:09;;;;;;;4.07;2.80;;;;;;;;;;5064416;28;20210;-51
2023/04/15 05:41:36;;;;;;;3.45;2.20;;;;;;;;;;5073337;28;20203;-51
2023/04/15 05:44:05;;;;;;;3.95;2.47;;;;;;;;;;5073104;28;20192;-54
2023/04/15 05:46:31;;;;;;;2.80;2.22;;;;;;;;;;5072980;28;20199;-53
2023/04/15 05:48:59;;;;;;;3.67;2.60;;;;;;;;;;5072670;28;20608;-53
2023/04/15 05:51:26;;;;;;;3.75;2.40;;;;;;;;;;5069131;28;20223;-49
2023/04/15 05:53:54;;;;;;;3.10;2.50;;;;;;;;;;5071404;28;20219;-49
2023/04/15 05:56:21;;;;;;;2.85;2.10;;;;;;;;;;5051591;28;20235;-51
2023/04/15 05:58:48;;;;;;;2.95;2.58;;;;;;;;;;5081058;28;20663;-49
2023/04/15 06:01:17;;;;;;;2.58;2.22;;;;;;;;;;5091061;28;20287;-50
2023/04/15 06:03:44;;;;;;;3.08;1.80;;;;;;;;;;5085868;28;20249;-48
2023/04/15 06:06:12;;;;;;;4.13;2.05;;;;;;;;;;5085847;28;20207;-49
2023/04/15 06:08:39;;;;;;;3.30;2.30;;;;;;;;;;5082030;28;20199;-49
2023/04/15 06:11:06;;;;;;;2.72;1.80;;;;;;;;;;5080374;28;20218;-51
2023/04/15 06:13:34;;;;;;;2.83;2.08;;;;;;;;;;5081531;28;20214;-51
2023/04/15 06:16:01;;;;;;;2.90;2.20;;;;;;;;;;5081532;28;20203;-52
2023/04/15 06:18:28;;;;;;;3.72;2.00;;;;;;;;;;5072302;28;20235;-52
2023/04/15 06:20:56;;;;;;;3.38;2.17;;;;;;;;;;5083755;28;20578;-57
2023/04/15 06:23:23;;;;;;;2.30;1.85;;;;;;;;;;5084323;28;20195;-49
2023/04/15 06:25:52;;;;;;;2.03;1.80;;;;;;;;;;5061098;28;20195;-54
2023/04/15 06:28:20;;;;;;;3.03;1.98;;;;;;;;;;5066580;28;20277;-49
2023/04/15 06:30:47;;;;;;;2.50;1.92;;;;;;;;;;5081419;28;20253;-52
2023/04/15 06:33:14;;;;;;;2.42;1.70;;;;;;;;;;5081443;28;20231;-50
2023/04/15 06:35:41;;;;;;;3.33;2.17;;;;;;;;;;5082945;28;20240;-48
2023/04/15 06:38:09;;;;;;;2.58;1.75;;;;;;;;;;5079508;28;20717;-48
2023/04/15 06:40:36;;;;;;;3.75;2.38;;;;;;;;;;5082967;28;20663;-49
2023/04/15 06:43:03;;;;;;;3.00;2.20;;;;;;;;;;5079664;28;20229;-52
2023/04/15 06:45:31;;;;;;;2.88;1.98;;;;;;;;;;5081726;28;20215;-49
2023/04/15 06:47:58;;;;;;;2.78;2.20;;;;;;;;;;5079620;28;20230;-50
2023/04/15 06:50:26;;;;;;;4.85;2.00;;;;;;;;;;5078077;28;20560;-50
2023/04/15 06:52:54;;;;;;;2.70;2.05;;;;;;;;;;5081867;28;20305;-49
2023/04/15 06:55:21;;;;;;;2.53;1.90;;;;;;;;;;5080598;28;20219;-49
2023/04/15 06:57:49;;;;;;;2.35;1.88;;;;;;;;;;5086208;28;20267;-54
2023/04/15 07:00:16;;;;;;;2.10;1.90;;;;;;;;;;5090740;28;20246;-48
2023/04/15 07:02:44;;;;;;;2.83;1.75;;;;;;;;;;5060916;28;20269;-49
2023/04/15 07:05:11;;;;;;;2.47;1.77;;;;;;;;;;5067734;28;20211;-50
2023/04/15 07:07:39;;;;;;;2.33;1.73;;;;;;;;;;5081190;28;20718;-52
2023/04/15 07:10:06;;;;;;;3.75;1.92;;;;;;;;;;5080246;28;20306;-50
2023/04/15 07:12:34;;;;;;;3.53;2.28;;;;;;;;;;5079846;28;20291;-54
2023/04/15 07:15:02;;;;;;;4.53;1.80;;;;;;;;;;5082379;28;20218;-54
2023/04/15 07:17:29;;;;;;;3.90;1.52;;;;;;;;;;5080922;28;20230;-50
2023/04/15 07:19:57;;;;;;;1.63;1.30;;;;;;;;;;5080168;28;20215;-49
2023/04/15 07:22:25;;;;;;;1.60;1.17;;;;;;;;;;5081559;28;20218;-50
2023/04/15 07:24:52;;;;;;;2.70;1.80;;;;;;;;;;5074510;28;20218;-51
2023/04/15 07:27:19;;;;;;;2.22;1.65;;;;;;;;;;5083123;28;20227;-52
2023/04/15 07:29:47;;;;;;;1.85;1.25;;;;;;;;;;5083249;28;20272;-51
2023/04/15 07:32:15;;;;;;;3.97;2.28;;;;;;;;;;5077559;28;20223;-54
2023/04/15 07:34:43;;;;;;;3.10;1.45;;;;;;;;;;5073136;28;20217;-54
2023/04/15 07:37:10;;;;;;;2.63;1.58;;;;;;;;;;5077483;28;20216;-50
2023/04/15 07:39:37;;;;;;;1.30;1.20;;;;;;;;;;5073355;28;20226;-54
2023/04/15 07:42:04;;;;;;;1.45;1.33;;;;;;;;;;5052892;28;20247;-52
2023/04/15 07:44:31;;;;;;;2.28;1.60;;;;;;;;;;5053439;28;20592;-54
2023/04/15 07:46:58;;;;;;;2.40;1.48;;;;;;;;;;5071329;28;20671;-51
2023/04/15 07:49:25;;;;;;;1.80;1.35;;;;;;;;;;5072725;28;20199;-54
2023/04/15 07:51:53;;;;;;;4.32;2.58;;;;;;;;;;5074712;28;20222;-51
2023/04/15 07:54:20;;;;;;;2.25;1.73;;;;;;;;;;5075260;28;20203;-53
2023/04/15 07:56:47;;;;;;;2.05;1.42;;;;;;;;;;5075806;28;20199;-51
2023/04/15 07:59:16;;;;;;;2.20;1.40;;;;;;;;;;5076025;28;20261;-50
2023/04/15 08:01:43;;;;;;;3.35;1.85;;;;;;;;;;5076586;28;20211;-51
2023/04/15 08:04:10;;;;;;;2.42;1.63;;;;;;;;;;5076411;28;20203;-51
2023/04/15 08:06:38;;;;;;;2.47;1.58;;;;;;;;;;5076230;28;20204;-52
2023/04/15 08:09:07;;;;;;;2.95;1.73;;;;;;;;;;5076761;28;20603;-51
2023/04/15 08:11:35;;;;;;;4.78;2.78;;;;;;;;;;5076465;28;20222;-50
2023/04/15 08:14:02;;;;;;;3.58;1.90;;;;;;;;;;5058299;28;20609;-50
2023/04/15 08:16:29;;;;;;;1.20;1.10;;;;;;;;;;5075412;28;20203;-53
2023/04/15 08:18:56;;;;;;;1.88;1.63;;;;;;;;;;5076477;28;20206;-50
2023/04/15 08:21:24;;;;;;;12.50;8.68;;;;;;;;;;5076059;28;20199;-51
2023/04/15 08:23:52;;;;;;;2.47;2.28;;;;;;;;;;5075686;28;20652;-52
2023/04/15 08:26:20;;;;;;;2.63;2.28;;;;;;;;;;5076124;28;20200;-56
2023/04/15 08:28:48;;;;;;;2.28;2.00;;;;;;;;;;5075922;28;20303;-51
2023/04/15 08:31:16;;;;;;;3.85;2.50;;;;;;;;;;5076101;28;20280;-51
2023/04/15 08:33:43;;;;;;;2.80;2.60;;;;;;;;;;5076025;28;20248;-51
2023/04/15 08:36:10;;;;;;;2.92;2.00;;;;;;;;;;5075682;28;20203;-51
2023/04/15 08:38:37;;;;;;;2.58;2.38;;;;;;;;;;5065635;28;20569;-53
2023/04/15 08:41:23;;;;;;;2.88;2.67;;;;;;;;;;5073759;28;20578;-50
2023/04/15 08:43:58;;;;;;;5.25;4.28;;;;;;;;;;5076029;28;20198;-50
2023/04/15 08:46:25;;;;;;;8.68;5.55;;;;;;;;;;5071795;28;20195;-52
2023/04/15 08:48:56;;;;;;;25.10;14.70;;;;;;;;;;5096116;28;20206;-51
2023/04/15 08:51:23;;;;;;;29.98;15.30;;;;;;;;;;5095969;28;20219;-50
2023/04/15 08:53:51;;;;;;;18.92;10.48;;;;;;;;;;5095716;28;20202;-51
2023/04/15 08:56:19;;;;;;;10.73;7.07;;;;;;;;;;5077615;28;20319;-52
2023/04/15 08:58:46;;;;;;;20.83;10.93;;;;;;;;;;5095381;28;20203;-51
2023/04/15 09:01:14;;;;;;;26.55;14.35;;;;;;;;;;5094461;28;20199;-57
2023/04/15 09:03:41;;;;;;;16.67;10.05;;;;;;;;;;5095191;28;20214;-51
2023/04/15 09:06:08;;;;;;;18.75;11.30;;;;;;;;;;5094928;28;20202;-51
2023/04/15 09:08:35;;;;;;;32.65;17.58;;;;;;;;;;5095397;28;20195;-50
2023/04/15 09:11:03;;;;;;;3.88;2.60;;;;;;;;;;5095483;28;20198;-50
2023/04/15 09:13:30;;;;;;;5.03;3.70;;;;;;;;;;5095084;28;20209;-58
2023/04/15 09:15:57;;;;;;;25.27;9.75;;;;;;;;;;5071250;28;20210;-53
2023/04/15 09:18:32;;;;;;;31.00;10.45;;;;;;;;;;5081112;28;20229;-51
2023/04/15 09:21:13;;;;;;;35.10;11.90;;;;;;;;;;5069460;28;20226;-53
2023/04/15 09:23:53;;;;;;;65.47;21.15;;;;;;;;;;5075682;28;20226;-57
2023/04/15 09:26:39;;;;;;;42.53;13.45;;;;;;;;;;5074269;28;20260;-54
2023/04/15 09:29:08;;;;;;;51.55;21.08;;;;;;;;;;5089349;28;20218;-54
2023/04/15 09:31:36;;;;;;;60.17;21.55;;;;;;;;;;5075865;28;20223;-52
2023/04/15 09:34:04;;;;;;;53.40;18.58;;;;;;;;;;5080745;28;20227;-50
2023/04/15 09:37:01;;;;;;;44.78;21.92;;;;;;;;;;5093987;28;20743;-50
2023/04/15 09:39:44;;;;;;;9.57;5.65;;;;;;;;;;4991600;28;20250;-48
2023/04/15 09:42:11;;;;;;;18.80;9.77;;;;;;;;;;5001365;28;20221;-49
2023/04/15 09:44:38;;;;;;;10.73;5.60;;;;;;;;;;4999510;28;20333;-48
2023/04/15 09:47:06;;;;;;;17.83;8.25;;;;;;;;;;4996311;28;20222;-47
2023/04/15 09:49:33;;;;;;;26.67;10.98;;;;;;;;;;4990025;28;20225;-51
2023/04/15 09:52:01;;;;;;;20.83;10.25;;;;;;;;;;4991287;28;20238;-48
2023/04/15 09:54:34;;;;;;;11.65;5.32;;;;;;;;;;4998050;28;20316;-50
2023/04/15 09:57:06;;;;;;;12.52;6.28;;;;;;;;;;4991547;28;20776;-47
2023/04/15 09:59:33;;;;;;;12.82;6.90;;;;;;;;;;4990661;28;20217;-52
2023/04/15 10:02:04;;;;;;;5.30;2.92;;;;;;;;;;4991573;28;20261;-50
2023/04/15 10:04:35;;;;;;;4.57;2.70;;;;;;;;;;4989904;28;20220;-49
2023/04/15 10:07:04;;;;;;;3.05;1.73;;;;;;;;;;4973863;28;20238;-49
2023/04/15 10:09:32;;;;;;;5.82;3.75;;;;;;;;;;4981782;28;20313;-51
2023/04/15 10:12:03;;;;;;;4.70;3.17;;;;;;;;;;4968670;28;20254;-49
2023/04/15 10:14:33;;;;;;;2.88;2.05;;;;;;;;;;4991418;28;20218;-50
2023/04/15 10:17:04;;;;;;;3.03;2.28;;;;;;;;;;5062834;28;20243;-50
2023/04/15 10:19:33;;;;;;;4.65;3.10;;;;;;;;;;5077623;28;20210;-47
2023/04/15 10:22:00;;;;;;;2.33;1.70;;;;;;;;;;5081922;28;20277;-45
2023/04/15 10:24:30;;;;;;;1.02;0.93;;;;;;;;;;5064699;28;20215;-48
2023/04/15 10:26:59;;;;;;;1.35;1.13;;;;;;;;;;5062287;28;20226;-51
2023/04/15 10:29:26;;;;;;;2.78;1.70;;;;;;;;;;5087915;28;20790;-47
2023/04/15 10:31:58;;;;;;;3.03;1.70;;;;;;;;;;5081461;28;20702;-53
2023/04/15 10:34:25;;;;;;;2.10;1.70;;;;;;;;;;5061614;28;20783;-50
2023/04/15 10:37:04;;;;;;;2.05;1.50;;;;;;;;;;5080207;28;21103;-48
2023/04/15 10:39:32;;;;;;;1.38;1.27;;;;;;;;;;5076573;28;20214;-49
2023/04/15 10:42:10;;;;;;;1.77;1.45;;;;;;;;;;5075137;28;20212;-51
2023/04/15 10:44:38;;;;;;;3.38;2.03;;;;;;;;;;5073249;28;20220;-52
2023/04/15 10:47:17;;;;;;;1.38;1.10;;;;;;;;;;5075719;28;20222;-48
2023/04/15 10:50:12;;;;;;;3.67;1.50;;;;;;;;;;5077992;28;20625;-48
2023/04/15 10:52:42;;;;;;;2.28;1.80;;;;;;;;;;5080962;28;20215;-47
2023/04/15 10:55:09;;;;;;;1.83;1.50;;;;;;;;;;5081538;28;20194;-47
2023/04/15 10:57:38;;;;;;;1.55;1.20;;;;;;;;;;5083377;28;20932;-51
2023/04/15 11:00:16;;;;;;;3.55;2.53;;;;;;;;;;5078998;28;20200;-48
2023/04/15 11:02:46;;;;;;;4.63;3.67;;;;;;;;;;5076746;28;20616;-47
2023/04/15 11:05:15;;;;;;;9.50;4.70;;;;;;;;;;5081938;28;20203;-47
2023/04/15 11:07:43;;;;;;;12.90;5.70;;;;;;;;;;5075673;28;20199;-47
2023/04/15 11:10:30;;;;;;;13.57;6.32;;;;;;;;;;5081953;28;20242;-53
2023/04/15 11:12:58;;;;;;;20.10;8.65;;;;;;;;;;5065110;28;20223;-50
2023/04/15 11:15:30;;;;;;;13.77;6.70;;;;;;;;;;5082538;28;20248;-47
2023/04/15 11:18:07;;;;;;;7.65;4.35;;;;;;;;;;5063089;28;20748;-48
2023/04/15 11:20:34;;;;;;;6.32;3.50;;;;;;;;;;5079648;28;20549;-47
2023/04/15 11:23:02;;;;;;;8.70;4.28;;;;;;;;;;5083548;28;20210;-47
2023/04/15 11:25:42;;;;;;;4.25;2.38;;;;;;;;;;5066204;28;20554;-49
2023/04/15 11:28:11;;;;;;;8.18;3.83;;;;;;;;;;5084016;28;20206;-50
2023/04/15 11:30:39;;;;;;;7.05;3.85;;;;;;;;;;5084260;28;20210;-47
2023/04/15 11:33:08;;;;;;;11.70;5.95;;;;;;;;;;5080199;28;20226;-47
2023/04/15 11:35:35;;;;;;;8.77;4.50;;;;;;;;;;5086565;28;20191;-49
2023/04/15 11:38:04;;;;;;;6.95;3.75;;;;;;;;;;5081092;28;20195;-47
2023/04/15 11:40:34;;;;;;;1.55;1.23;;;;;;;;;;5085628;28;20202;-53
2023/04/15 11:43:11;;;;;;;15.75;9.05;;;;;;;;;;5086998;28;20201;-47
2023/04/15 11:45:53;;;;;;;14.10;6.80;;;;;;;;;;5086512;28;20191;-47
2023/04/15 11:48:28;;;;;;;9.95;5.10;;;;;;;;;;5086831;28;20237;-51
2023/04/15 11:51:03;;;;;;;11.80;5.88;;;;;;;;;;5090523;28;20643;-46
2023/04/15 11:53:46;;;;;;;2.83;1.63;;;;;;;;;;5075951;28;20223;-46
2023/04/15 11:56:21;;;;;;;11.60;6.38;;;;;;;;;;5076458;28;20222;-48
2023/04/15 11:58:55;;;;;;;9.43;5.13;;;;;;;;;;5081396;28;20406;-52
2023/04/15 12:01:38;;;;;;;12.35;4.05;;;;;;;;;;5085072;28;20274;-48
2023/04/15 12:04:12;;;;;;;16.33;5.93;;;;;;;;;;5085189;28;20192;-46
2023/04/15 12:06:40;;;;;;;26.00;8.55;;;;;;;;;;5083826;28;20191;-47
2023/04/15 12:09:15;;;;;;;23.45;10.02;;;;;;;;;;5083975;28;20203;-50
2023/04/15 12:11:47;;;;;;;6.50;3.72;;;;;;;;;;5083247;28;20564;-46
2023/04/15 12:14:14;;;;;;;23.42;9.38;;;;;;;;;;5085050;28;20635;-47
2023/04/15 12:16:44;;;;;;;32.13;11.55;;;;;;;;;;5081243;28;20581;-48
2023/04/15 12:19:42;;;;;;;10.27;4.88;;;;;;;;;;5084204;28;20191;-54
2023/04/15 12:22:12;;;;;;;23.15;9.32;;;;;;;;;;5082195;28;20215;-51
2023/04/15 12:24:42;;;;;;;8.60;4.70;;;;;;;;;;5084083;28;20241;-48
2023/04/15 12:27:10;;;;;;;18.50;6.40;;;;;;;;;;5082542;28;20192;-46
2023/04/15 12:29:39;;;;;;;15.82;8.20;;;;;;;;;;5074433;28;20881;-48
2023/04/15 12:32:07;;;;;;;13.75;7.00;;;;;;;;;;5055204;28;20466;-47
2023/04/15 12:34:37;;;;;;;10.52;5.78;;;;;;;;;;5064531;28;20195;-47
2023/04/15 12:37:06;;;;;;;10.10;5.65;;;;;;;;;;5076035;28;20199;-46
2023/04/15 12:39:35;;;;;;;3.38;2.22;;;;;;;;;;5069690;28;20317;-48
2023/04/15 12:42:03;;;;;;;7.15;3.65;;;;;;;;;;5084287;28;20202;-47
2023/04/15 12:44:32;;;;;;;7.43;4.32;;;;;;;;;;5065669;28;20198;-46
2023/04/15 12:46:59;;;;;;;5.72;3.10;;;;;;;;;;5081960;28;20205;-46
2023/04/15 12:49:27;;;;;;;4.18;2.42;;;;;;;;;;5083890;28;20562;-48
2023/04/15 12:51:56;;;;;;;3.28;2.58;;;;;;;;;;5076437;28;20226;-48
2023/04/15 12:54:23;;;;;;;5.28;2.78;;;;;;;;;;5086764;28;20215;-50
2023/04/15 12:56:50;;;;;;;4.63;2.80;;;;;;;;;;5082073;28;20215;-46
2023/04/15 12:59:18;;;;;;;4.32;2.85;;;;;;;;;;5078523;28;20210;-48
2023/04/15 13:01:46;;;;;;;7.38;3.35;;;;;;;;;;5086567;28;20566;-48
2023/04/15 13:04:14;;;;;;;4.78;2.28;;;;;;;;;;5079911;28;20704;-48
2023/04/15 13:06:41;;;;;;;6.03;3.13;;;;;;;;;;5077372;28;20238;-50
2023/04/15 13:09:08;;;;;;;7.47;3.42;;;;;;;;;;5074397;28;21562;-51
2023/04/15 13:11:35;;;;;;;9.98;4.15;;;;;;;;;;5080890;28;20211;-49
2023/04/15 13:14:05;;;;;;;5.30;3.53;;;;;;;;;;5078446;28;20273;-52
2023/04/15 13:16:33;;;;;;;3.40;1.85;;;;;;;;;;5089956;28;20280;-51
2023/04/15 13:19:02;;;;;;;3.42;2.03;;;;;;;;;;5069423;28;20569;-48
2023/04/15 13:21:31;;;;;;;5.05;1.85;;;;;;;;;;5087329;28;20215;-52
2023/04/15 13:23:58;;;;;;;5.40;1.35;;;;;;;;;;5075890;28;20220;-55
2023/04/15 13:26:25;;;;;;;3.72;2.33;;;;;;;;;;5073066;28;20227;-55
2023/04/15 13:28:52;;;;;;;3.45;2.20;;;;;;;;;;5064380;28;20221;-51
2023/04/15 13:31:19;;;;;;;5.57;3.65;;;;;;;;;;5084833;28;20225;-48
2023/04/15 13:33:47;;;;;;;4.43;3.67;;;;;;;;;;5083420;28;20238;-50
2023/04/15 13:36:14;;;;;;;1.70;1.50;;;;;;;;;;5083105;28;20222;-51
2023/04/15 13:38:41;;;;;;;0.90;0.90;;;;;;;;;;5078848;28;20222;-49
2023/04/15 13:41:10;;;;;;;0.80;0.63;;;;;;;;;;5082662;28;20263;-48
2023/04/15 13:43:37;;;;;;;1.48;0.98;;;;;;;;;;5081490;28;20219;-50
2023/04/15 13:46:04;;;;;;;1.15;1.05;;;;;;;;;;5082612;28;20733;-55
2023/04/15 13:48:31;;;;;;;1.52;0.90;;;;;;;;;;5082296;28;20215;-48
2023/04/15 13:50:58;;;;;;;1.70;1.25;;;;;;;;;;5081500;28;20216;-52
2023/04/15 13:53:26;;;;;;;2.45;0.82;;;;;;;;;;5082050;28;20686;-49
2023/04/15 13:56:07;;;;;;;1.80;1.27;;;;;;;;;;5079696;28;20223;-53
2023/04/15 13:58:36;;;;;;;2.83;1.20;;;;;;;;;;5081707;28;20211;-51
2023/04/15 14:01:03;;;;;;;2.45;1.27;;;;;;;;;;5077158;28;20301;-49
2023/04/15 14:03:33;;;;;;;2.90;1.75;;;;;;;;;;5078609;28;20223;-49
2023/04/15 14:06:00;;;;;;;0.70;0.60;;;;;;;;;;5079539;28;20219;-52
2023/04/15 14:08:28;;;;;;;1.08;0.65;;;;;;;;;;5048605;28;20227;-47
2023/04/15 14:10:56;;;;;;;0.93;0.60;;;;;;;;;;5074341;28;20276;-52
2023/04/15 14:13:24;;;;;;;1.00;0.60;;;;;;;;;;5081063;28;20310;-47
2023/04/15 14:15:51;;;;;;;0.55;0.50;;;;;;;;;;5080692;28;20560;-49
2023/04/15 14:18:19;;;;;;;0.77;0.70;;;;;;;;;;5079495;28;20718;-49
2023/04/15 14:20:45;;;;;;;0.77;0.60;;;;;;;;;;5082785;28;20620;-53
2023/04/15 14:23:13;;;;;;;1.10;0.80;;;;;;;;;;5078722;28;20222;-47
2023/04/15 14:25:40;;;;;;;0.82;0.82;;;;;;;;;;5082065;28;20302;-48
2023/04/15 14:28:07;;;;;;;1.25;0.77;;;;;;;;;;5080113;28;20632;-53
2023/04/15 14:30:34;;;;;;;0.80;0.80;;;;;;;;;;5081067;28;20219;-48
2023/04/15 14:33:02;;;;;;;0.82;0.60;;;;;;;;;;5081186;28;20226;-48
2023/04/15 14:35:30;;;;;;;0.80;0.60;;;;;;;;;;5084850;28;20242;-52
2023/04/15 14:37:57;;;;;;;1.45;0.70;;;;;;;;;;5083887;28;20235;-49
2023/04/15 14:40:24;;;;;;;0.70;0.68;;;;;;;;;;5067892;28;20219;-50
2023/04/15 14:42:51;;;;;;;0.50;0.50;;;;;;;;;;5081217;28;20234;-49
2023/04/15 14:45:18;;;;;;;1.23;0.70;;;;;;;;;;5084139;28;20219;-48
2023/04/15 14:47:46;;;;;;;0.63;0.63;;;;;;;;;;5089444;28;20306;-48
2023/04/15 14:50:13;;;;;;;2.00;1.33;;;;;;;;;;5076292;28;20214;-52